This is the latest recevied weather packets stored in our database for station/object DO6MJ-1. If no packets are shown the sender has not sent any weather packets the latest 10 day(s).
| Time | Temp. | Humidity | Pressure | Rain* | Wind** | Luminosity | Snow |
|---|---|---|---|---|---|---|---|
| 1778000591 | 12.78° C | 88% | 1001.5 hPa | 0 mm | - | - | - |
| 1777999391 | 12.78° C | 88% | 1001.5 hPa | 0 mm | - | - | - |
| 1777998190 | 12.78° C | 87% | 1001.6 hPa | 0 mm | - | - | - |
| 1777996990 | 13.33° C | 87% | 1001.7 hPa | 0 mm | - | - | - |
| 1777995790 | 13.33° C | 86% | 1001.6 hPa | 0 mm | - | - | - |
| 1777994590 | 13.89° C | 86% | 1001.7 hPa | 0 mm | - | - | - |
| 1777993389 | 13.89° C | 86% | 1001.7 hPa | 0 mm | - | - | - |
| 1777992189 | 13.89° C | 86% | 1001.9 hPa | 0 mm | - | - | - |
| 1777990989 | 13.33° C | 87% | 1002.1 hPa | 0 mm | - | - | - |
| 1777989788 | 13.89° C | 86% | 1002.1 hPa | 0 mm | - | - | - |
| 1777988588 | 13.89° C | 87% | 1002.3 hPa | 0 mm | - | - | - |
| 1777987388 | 13.89° C | 87% | 1002.4 hPa | 0 mm | - | - | - |
| 1777986188 | 13.89° C | 89% | 1002.7 hPa | 0 mm | - | - | - |
| 1777984987 | 13.89° C | 89% | 1002.8 hPa | 0 mm | - | - | - |
| 1777983787 | 14.44° C | 89% | 1002.6 hPa | 0 mm | - | - | - |
| 1777982587 | 15° C | 90% | 1002.4 hPa | 0 mm | - | - | - |
| 1777981386 | 14.44° C | 93% | 1002.4 hPa | 0.51 mm | - | - | - |
| 1777980186 | 12.78° C | 93% | 1002.7 hPa | 0.51 mm | - | - | - |
| 1777978986 | 12.78° C | 93% | 1002.7 hPa | 0.51 mm | - | - | - |
| 1777977786 | 12.78° C | 93% | 1002.9 hPa | 0 mm | - | - | - |
| 1777976585 | 12.78° C | 93% | 1002.8 hPa | 0 mm | - | - | - |
| 1777975385 | 12.78° C | 93% | 1003 hPa | 0 mm | - | - | - |
| 1777974185 | 13.33° C | 93% | 1003 hPa | 0 mm | - | - | - |
| 1777972984 | 13.33° C | 93% | 1002.9 hPa | 0.51 mm | - | - | - |
| 1777971784 | 13.89° C | 93% | 1002.8 hPa | 1.52 mm | - | - | - |
* Rain latest hour (hover to see other rain measurements)
** Current wind speed in m/s (hover to see current wind gust speed)